KPAE/PAE METAR and TAF weather

Enter ICAO airport designator
Station Type Date Time Source
KPAE METAR 2022/01/26 12:53 UTC NOAA

KPAE 261253Z AUTO 01004KT M1/4SM R16R/0800V1000FT FG VV001 01/01 A3025 RMK AO2 SLP249 T00060006


Station Type Date Time Source
KPAE Decoded METAR 2022/01/26 12:53 UTC NOAA

EVERETT SNOHOMISH COUNTY, WA, United States (KPAE) 47-55N 122-17W 180M
Jan 26, 2022 - 07:53 AM EST / 2022.01.26 1253 UTC
Wind: from the N (010 degrees) at 5 MPH (4 KT) (direction variable):0
Visibility: less than 1/4 mile(s):1
Sky conditions: obscured
Weather: fog
Temperature: 33.1 F (0.6 C)
Windchill: 28 F (-2 C):1
Dew Point: 33.1 F (0.6 C)
Relative Humidity: 100%
Pressure (altimeter): 30.25 in. Hg (1024 hPa)
ob: KPAE 261253Z AUTO 01004KT M1/4SM R16R/0800V1000FT FG VV001 01/01 A3025 RMK AO2 SLP249 T00060006
cycle: 13

Station Type Date Time Source
KPAE TAF 2022/01/26 12:22 UTC NOAA

TAF KPAE 261120Z 2612/2712 36005KT 1/4SM FG VV001
FM261800 VRB02KT 1/2SM FG OVC003
FM262000 VRB03KT 3SM BR BKN005
FM262100 35003KT 6SM BR SCT020
FM270300 00000KT 1/4SM FG OVC003

Example: see airport list